createdAt,value
2022-09-05T00:00:32.045Z,69.10
2022-09-05T00:06:07.257Z,69.16
2022-09-05T00:11:44.068Z,69.20
2022-09-05T00:17:45.860Z,69.10
2022-09-05T00:24:28.686Z,69.22
2022-09-05T00:31:07.590Z,68.92
2022-09-05T00:36:03.616Z,69.00
2022-09-05T00:41:25.418Z,69.04
2022-09-05T00:47:02.745Z,69.01
2022-09-05T00:53:07.209Z,68.91
2022-09-05T00:58:45.106Z,68.89
2022-09-05T01:04:06.245Z,68.70
2022-09-05T01:10:03.890Z,68.75
2022-09-05T01:15:32.505Z,68.80
2022-09-05T01:21:10.398Z,68.84
2022-09-05T01:26:58.262Z,68.80
2022-09-05T01:32:42.948Z,68.78
2022-09-05T01:38:11.028Z,68.82
2022-09-05T01:44:09.770Z,68.85
2022-09-05T01:49:42.886Z,68.81
2022-09-05T01:55:20.124Z,68.84
2022-09-05T02:01:25.100Z,69.02
2022-09-05T02:07:29.806Z,69.14
2022-09-05T02:13:22.191Z,69.16
2022-09-05T02:19:10.173Z,69.25
2022-09-05T02:24:38.246Z,69.25
2022-09-05T02:30:09.515Z,69.08
2022-09-05T02:35:53.020Z,69.19
2022-09-05T02:45:09.703Z,69.18
2022-09-05T02:47:34.653Z,69.16
2022-09-05T02:57:25.548Z,69.20
2022-09-05T02:59:10.900Z,69.34
2022-09-05T03:04:51.350Z,69.27
2022-09-05T03:10:55.044Z,69.41
2022-09-05T03:16:50.867Z,69.29
2022-09-05T03:22:37.699Z,69.25
2022-09-05T03:28:24.930Z,69.25
2022-09-05T03:34:16.212Z,69.17
2022-09-05T03:40:15.259Z,69.35
2022-09-05T03:45:50.124Z,69.37
2022-09-05T03:57:20.828Z,69.26
2022-09-05T03:57:38.734Z,69.71
2022-09-05T04:08:06.970Z,69.72
2022-09-05T04:09:49.422Z,70.20
2022-09-05T04:15:09.461Z,69.98
2022-09-05T04:20:51.075Z,70.32
2022-09-05T04:26:28.701Z,70.31
2022-09-05T04:32:18.690Z,71.15
2022-09-05T04:37:55.640Z,71.10
2022-09-05T04:43:19.357Z,71.34
2022-09-05T04:48:51.788Z,71.27
2022-09-05T04:54:23.233Z,71.54
2022-09-05T05:06:05.089Z,71.68
2022-09-05T05:06:49.582Z,71.99
2022-09-05T05:17:05.147Z,72.36
2022-09-05T05:18:42.511Z,72.66
2022-09-05T05:23:52.815Z,72.68
2022-09-05T05:29:19.417Z,72.94
2022-09-05T05:34:47.333Z,72.59
2022-09-05T05:40:19.442Z,72.79
2022-09-05T05:45:41.341Z,72.66
2022-09-05T05:51:14.575Z,72.44
2022-09-05T05:57:20.713Z,72.43
2022-09-05T06:03:26.468Z,71.98
2022-09-05T06:14:51.311Z,71.32
2022-09-05T06:15:38.426Z,70.58
2022-09-05T06:22:05.834Z,70.19
2022-09-05T06:27:24.519Z,69.74
2022-09-05T06:33:03.742Z,69.25
2022-09-05T06:38:55.930Z,68.74
2022-09-05T06:44:49.176Z,68.23
2022-09-05T06:50:26.756Z,67.50
2022-09-05T06:56:25.625Z,66.08
2022-09-05T07:02:00.326Z,65.78
2022-09-05T07:07:36.006Z,65.08
2022-09-05T07:13:24.720Z,64.36
2022-09-05T07:19:03.231Z,63.58
2022-09-05T07:24:54.097Z,62.26
2022-09-05T07:30:16.178Z,60.74
2022-09-05T07:35:41.842Z,59.08
2022-09-05T07:41:19.590Z,57.55
2022-09-05T07:46:45.349Z,56.01
2022-09-05T07:56:50.274Z,53.44
2022-09-05T07:58:02.965Z,51.47
2022-09-05T08:03:28.191Z,49.89
2022-09-05T08:09:21.838Z,48.97
2022-09-05T08:15:06.660Z,48.19
2022-09-05T08:20:47.775Z,47.48
2022-09-05T08:26:15.842Z,46.30
2022-09-05T08:31:47.007Z,46.15
2022-09-05T08:37:13.056Z,45.59
2022-09-05T08:45:09.187Z,44.89
2022-09-05T08:49:16.274Z,44.50
2022-09-05T08:55:07.076Z,43.81
2022-09-05T09:00:36.254Z,43.81
2022-09-05T09:06:29.778Z,43.89
2022-09-05T09:12:27.665Z,42.81
2022-09-05T09:17:50.468Z,42.27
2022-09-05T09:23:40.009Z,41.74
2022-09-05T09:29:07.545Z,41.27
2022-09-05T09:34:38.150Z,40.75
2022-09-05T09:40:52.419Z,40.54
2022-09-05T09:46:30.809Z,40.31
2022-09-05T09:52:34.140Z,40.61
2022-09-05T09:58:13.223Z,39.47
2022-09-05T10:09:38.390Z,39.51
2022-09-05T10:11:09.346Z,39.39
2022-09-05T10:16:23.298Z,38.50
2022-09-05T10:28:14.068Z,37.70
2022-09-05T10:35:19.950Z,37.42
2022-09-05T10:39:38.353Z,37.78
2022-09-05T10:45:03.266Z,37.35
2022-09-05T10:50:28.830Z,36.84
2022-09-05T10:56:04.911Z,36.60
2022-09-05T11:02:26.863Z,36.85
2022-09-05T11:08:09.092Z,36.29
2022-09-05T11:13:46.537Z,36.19
2022-09-05T11:19:14.177Z,36.11
2022-09-05T11:25:00.473Z,36.03
2022-09-05T11:30:30.493Z,35.46
2022-09-05T11:39:52.867Z,35.73
2022-09-05T11:41:47.365Z,35.51
2022-09-05T11:47:46.989Z,35.45
2022-09-05T11:53:40.304Z,35.63
2022-09-05T11:59:38.539Z,35.46
2022-09-05T12:05:50.723Z,35.30
2022-09-05T12:11:59.176Z,34.62
2022-09-05T12:17:35.402Z,34.38
2022-09-05T12:23:31.167Z,34.50
2022-09-05T12:29:29.182Z,34.44
2022-09-05T12:36:13.160Z,34.65
2022-09-05T12:41:35.915Z,34.41
2022-09-05T12:46:48.044Z,34.22
2022-09-05T12:52:47.036Z,34.28
2022-09-05T13:02:55.090Z,34.09
2022-09-05T13:04:26.833Z,33.61
2022-09-05T13:14:28.991Z,33.50
2022-09-05T13:15:52.633Z,33.57
2022-09-05T13:21:23.238Z,33.58
2022-09-05T13:26:56.472Z,33.63
2022-09-05T13:38:00.716Z,33.46
2022-09-05T13:38:47.651Z,33.52
2022-09-05T13:44:26.761Z,33.48
2022-09-05T13:49:54.209Z,33.34
2022-09-05T13:55:24.133Z,33.55
2022-09-05T14:01:10.697Z,33.54
2022-09-05T14:06:47.503Z,34.02
2022-09-05T14:12:18.639Z,34.08
2022-09-05T14:18:20.347Z,34.07
2022-09-05T14:23:54.272Z,34.05
2022-09-05T14:29:36.037Z,34.13
2022-09-05T14:37:46.746Z,34.12
2022-09-05T14:40:40.476Z,33.80
2022-09-05T14:46:22.222Z,34.21
2022-09-05T14:51:30.653Z,34.31
2022-09-05T15:00:18.634Z,34.62
2022-09-05T15:02:48.693Z,34.79
2022-09-05T15:07:49.890Z,34.90
2022-09-05T15:13:20.569Z,35.01
2022-09-05T15:18:40.723Z,35.03
2022-09-05T15:24:00.028Z,35.19
2022-09-05T15:29:14.532Z,35.47
2022-09-05T15:34:28.180Z,35.36
2022-09-05T15:39:33.273Z,35.57
2022-09-05T15:44:53.261Z,35.74
2022-09-05T15:50:19.006Z,35.81
2022-09-05T15:55:28.475Z,35.70
2022-09-05T16:00:41.942Z,35.90
2022-09-05T16:10:50.788Z,35.87
2022-09-05T16:12:07.733Z,36.12
2022-09-05T16:23:18.738Z,36.41
2022-09-05T16:23:32.901Z,36.92
2022-09-05T16:28:06.129Z,37.43
2022-09-05T16:33:22.285Z,38.00
2022-09-05T16:38:48.917Z,38.67
2022-09-05T16:44:00.573Z,39.56
2022-09-05T16:49:38.154Z,40.85
2022-09-05T16:54:49.302Z,41.65
2022-09-05T16:59:53.301Z,42.27
2022-09-05T17:05:12.369Z,42.78
2022-09-05T17:10:21.229Z,43.57
2022-09-05T17:15:51.728Z,44.33
2022-09-05T17:21:01.479Z,44.63
2022-09-05T17:29:50.486Z,45.25
2022-09-05T17:31:53.642Z,45.84
2022-09-05T17:37:36.220Z,46.46
2022-09-05T17:43:03.137Z,47.05
2022-09-05T17:48:06.889Z,47.50
2022-09-05T17:53:24.931Z,48.09
2022-09-05T17:58:49.642Z,48.94
2022-09-05T18:04:16.020Z,49.90
2022-09-05T18:09:59.021Z,50.59
2022-09-05T18:15:28.463Z,51.29
2022-09-05T18:20:42.665Z,52.01
2022-09-05T18:26:20.871Z,52.64
2022-09-05T18:31:41.222Z,53.31
2022-09-05T18:36:48.782Z,53.88
2022-09-05T18:42:33.904Z,54.44
2022-09-05T18:47:59.018Z,54.83
2022-09-05T18:53:10.585Z,55.22
2022-09-05T18:58:27.958Z,56.20
2022-09-05T19:03:34.668Z,56.19
2022-09-05T19:08:48.037Z,56.78
2022-09-05T19:14:25.580Z,57.69
2022-09-05T19:19:27.299Z,58.10
2022-09-05T19:24:44.912Z,58.91
2022-09-05T19:36:56.962Z,59.16
2022-09-05T19:37:22.437Z,59.40
2022-09-05T19:47:25.317Z,59.57
2022-09-05T19:47:39.122Z,60.00
2022-09-05T19:51:41.846Z,60.51
2022-09-05T19:56:46.877Z,61.15
2022-09-05T20:01:53.405Z,61.42
2022-09-05T20:06:57.492Z,61.36
2022-09-05T20:12:01.108Z,61.95
2022-09-05T20:17:34.995Z,62.58
2022-09-05T20:22:47.768Z,62.61
2022-09-05T20:27:54.365Z,62.73
2022-09-05T20:33:03.505Z,62.84
2022-09-05T20:43:17.937Z,63.35
2022-09-05T20:44:21.051Z,63.58
2022-09-05T20:54:17.371Z,63.79
2022-09-05T20:55:16.690Z,64.04
2022-09-05T21:00:25.996Z,64.41
2022-09-05T21:05:34.827Z,64.35
2022-09-05T21:10:56.744Z,64.36
2022-09-05T21:16:00.972Z,64.54
2022-09-05T21:21:14.597Z,64.92
2022-09-05T21:26:31.542Z,65.52
2022-09-05T21:31:43.097Z,66.01
2022-09-05T21:36:48.564Z,66.16
2022-09-05T21:43:04.978Z,66.18
2022-09-05T21:47:40.383Z,66.04
2022-09-05T21:53:52.385Z,66.25
2022-09-05T21:59:25.569Z,66.27
2022-09-05T22:03:39.892Z,66.00
2022-09-05T22:08:43.278Z,66.26
2022-09-05T22:14:06.836Z,66.34
2022-09-05T22:19:11.672Z,66.67
2022-09-05T22:24:15.273Z,66.74
2022-09-05T22:29:18.887Z,66.65
2022-09-05T22:34:22.834Z,66.71
2022-09-05T22:39:27.381Z,66.65
2022-09-05T22:44:42.338Z,66.61
2022-09-05T22:49:45.917Z,66.46
2022-09-05T22:54:49.493Z,66.63
2022-09-05T22:59:53.223Z,66.61
2022-09-05T23:04:57.134Z,66.48
2022-09-05T23:10:01.037Z,66.80
2022-09-05T23:15:05.153Z,66.78
2022-09-05T23:20:10.953Z,66.72
2022-09-05T23:25:15.337Z,67.17
2022-09-05T23:30:19.531Z,67.03
2022-09-05T23:35:23.229Z,66.93
2022-09-05T23:40:27.494Z,67.10
2022-09-05T23:45:31.523Z,66.93
2022-09-05T23:50:34.883Z,67.20
2022-09-05T23:55:38.236Z,67.17
